createdAt,value
2019-05-30T00:00:14.956Z,12.97
2019-05-30T00:02:39.600Z,12.95
2019-05-30T00:05:10.971Z,12.83
2019-05-30T00:07:41.966Z,12.92
2019-05-30T00:10:13.426Z,12.87
2019-05-30T00:12:44.513Z,12.96
2019-05-30T00:15:15.691Z,12.90
2019-05-30T00:17:46.715Z,12.86
2019-05-30T00:20:17.829Z,12.76
2019-05-30T00:22:48.839Z,12.79
2019-05-30T00:25:19.883Z,12.74
2019-05-30T00:27:50.962Z,12.81
2019-05-30T00:30:24.773Z,12.81
2019-05-30T00:32:57.199Z,12.85
2019-05-30T00:35:28.301Z,12.73
2019-05-30T00:37:59.733Z,12.75
2019-05-30T00:40:31.883Z,12.76
2019-05-30T00:43:04.118Z,12.80
2019-05-30T00:45:35.215Z,12.65
2019-05-30T00:48:06.702Z,12.69
2019-05-30T00:50:37.741Z,12.58
2019-05-30T00:53:08.747Z,12.63
2019-05-30T00:55:40.049Z,12.63
2019-05-30T00:58:11.334Z,12.61
2019-05-30T01:00:44.202Z,12.63
2019-05-30T01:03:15.768Z,12.61
2019-05-30T01:05:47.839Z,12.58
2019-05-30T01:08:18.864Z,12.59
2019-05-30T01:10:49.931Z,12.68
2019-05-30T01:13:20.926Z,12.60
2019-05-30T01:15:53.047Z,12.53
2019-05-30T01:18:24.151Z,12.52
2019-05-30T01:20:55.318Z,12.46
2019-05-30T01:23:26.331Z,12.49
2019-05-30T01:25:57.395Z,12.54
2019-05-30T01:28:28.372Z,12.51
2019-05-30T01:31:04.594Z,12.53
2019-05-30T01:33:33.517Z,12.48
2019-05-30T01:36:05.835Z,12.31
2019-05-30T01:38:37.254Z,12.41
2019-05-30T01:41:08.314Z,12.30
2019-05-30T01:43:39.389Z,12.42
2019-05-30T01:46:10.466Z,12.35
2019-05-30T01:48:41.563Z,12.25
2019-05-30T01:51:12.628Z,12.25
2019-05-30T01:53:43.708Z,12.24
2019-05-30T01:56:14.685Z,12.26
2019-05-30T01:58:46.052Z,12.27
2019-05-30T02:01:24.791Z,12.28
2019-05-30T02:03:49.817Z,12.30
2019-05-30T02:06:20.810Z,12.39
2019-05-30T02:08:52.932Z,12.32
2019-05-30T02:11:23.927Z,12.20
2019-05-30T02:13:54.934Z,12.21
2019-05-30T02:16:25.930Z,12.19
2019-05-30T02:18:56.962Z,12.22
2019-05-30T02:21:28.020Z,12.25
2019-05-30T02:23:59.793Z,12.28
2019-05-30T02:26:30.779Z,12.16
2019-05-30T02:29:01.991Z,12.20
2019-05-30T02:31:38.828Z,12.14
2019-05-30T02:34:07.499Z,12.08
2019-05-30T02:36:39.748Z,12.09
2019-05-30T02:39:12.019Z,12.06
2019-05-30T02:41:43.326Z,12.05
2019-05-30T02:44:14.713Z,12.03
2019-05-30T02:46:45.836Z,12.06
2019-05-30T02:49:16.849Z,12.01
2019-05-30T02:51:47.895Z,11.96
2019-05-30T02:54:18.892Z,11.90
2019-05-30T02:56:50.017Z,11.94
2019-05-30T02:59:21.026Z,11.95
2019-05-30T03:02:00.709Z,11.97
2019-05-30T03:04:25.697Z,12.00
2019-05-30T03:06:56.825Z,12.05
2019-05-30T03:09:28.095Z,12.01
2019-05-30T03:11:59.438Z,11.89
2019-05-30T03:14:30.534Z,12.02
2019-05-30T03:17:04.709Z,11.95
2019-05-30T03:19:35.785Z,11.84
2019-05-30T03:22:08.616Z,11.88
2019-05-30T03:24:39.870Z,11.95
2019-05-30T03:27:12.372Z,11.83
2019-05-30T03:29:44.001Z,11.91
2019-05-30T03:32:59.485Z,11.86
2019-05-30T03:34:48.633Z,11.82
2019-05-30T03:37:28.740Z,11.80
2019-05-30T03:39:53.134Z,11.74
2019-05-30T03:42:24.123Z,11.75
2019-05-30T03:44:55.273Z,11.76
2019-05-30T03:47:28.253Z,11.85
2019-05-30T03:50:00.393Z,11.72
2019-05-30T03:52:32.550Z,11.72
2019-05-30T03:55:05.266Z,11.72
2019-05-30T03:57:42.904Z,11.72
2019-05-30T04:00:32.824Z,11.72
2019-05-30T04:03:19.196Z,11.69
2019-05-30T04:05:57.435Z,11.68
2019-05-30T04:08:31.887Z,11.67
2019-05-30T04:11:07.544Z,11.72
2019-05-30T04:13:56.245Z,11.78
2019-05-30T04:16:27.334Z,11.75
2019-05-30T04:18:58.364Z,11.79
2019-05-30T04:21:29.396Z,11.90
2019-05-30T04:24:00.467Z,11.76
2019-05-30T04:26:31.466Z,11.77
2019-05-30T04:29:02.472Z,11.85
2019-05-30T04:31:33.472Z,11.80
2019-05-30T04:34:04.539Z,11.90
2019-05-30T04:36:35.684Z,11.94
2019-05-30T04:39:08.823Z,12.01
2019-05-30T04:41:40.888Z,11.89
2019-05-30T04:44:13.807Z,12.03
2019-05-30T04:46:44.742Z,12.07
2019-05-30T04:49:16.923Z,12.15
2019-05-30T04:51:48.425Z,12.25
2019-05-30T04:54:21.157Z,12.22
2019-05-30T04:56:53.265Z,12.22
2019-05-30T04:59:24.238Z,12.24
2019-05-30T05:01:55.241Z,12.29
2019-05-30T05:04:26.219Z,12.31
2019-05-30T05:06:57.253Z,12.31
2019-05-30T05:09:28.253Z,12.34
2019-05-30T05:11:59.251Z,12.39
2019-05-30T05:14:30.244Z,12.43
2019-05-30T05:17:02.856Z,12.48
2019-05-30T05:19:33.918Z,12.64
2019-05-30T05:22:05.063Z,12.65
2019-05-30T05:24:36.120Z,12.61
2019-05-30T05:27:09.821Z,12.69
2019-05-30T05:29:40.095Z,12.72
2019-05-30T05:32:11.309Z,12.86
2019-05-30T05:34:43.870Z,12.96
2019-05-30T05:37:14.996Z,12.98
2019-05-30T05:39:46.009Z,13.04
2019-05-30T05:42:18.107Z,13.14
2019-05-30T05:44:49.051Z,13.22
2019-05-30T05:47:20.460Z,13.29
2019-05-30T05:49:51.553Z,13.38
2019-05-30T05:52:23.473Z,13.47
2019-05-30T05:54:54.457Z,13.52
2019-05-30T05:57:25.464Z,13.59
2019-05-30T05:59:56.478Z,13.61
2019-05-30T06:02:27.602Z,13.75
2019-05-30T06:04:58.660Z,13.81
2019-05-30T06:07:29.681Z,13.87
2019-05-30T06:10:00.880Z,13.96
2019-05-30T06:12:33.543Z,14.04
2019-05-30T06:15:05.061Z,14.07
2019-05-30T06:17:36.076Z,14.24
2019-05-30T06:20:07.597Z,14.29
2019-05-30T06:22:38.630Z,14.31
2019-05-30T06:25:11.489Z,14.46
2019-05-30T06:27:42.575Z,14.48
2019-05-30T06:30:13.844Z,14.56
2019-05-30T06:32:45.028Z,14.61
2019-05-30T06:35:16.347Z,14.72
2019-05-30T06:37:47.372Z,14.81
2019-05-30T06:40:19.469Z,14.93
2019-05-30T06:42:50.551Z,15.03
2019-05-30T06:45:23.658Z,15.07
2019-05-30T06:47:54.487Z,15.20
2019-05-30T06:50:26.736Z,15.20
2019-05-30T06:52:57.908Z,15.27
2019-05-30T06:55:29.567Z,15.36
2019-05-30T06:58:00.636Z,15.38
2019-05-30T07:00:33.076Z,15.53
2019-05-30T07:03:04.143Z,15.61
2019-05-30T07:05:36.299Z,15.70
2019-05-30T07:08:07.811Z,15.88
2019-05-30T07:10:38.832Z,16.01
2019-05-30T07:13:09.864Z,16.15
2019-05-30T07:15:40.924Z,16.29
2019-05-30T07:18:12.079Z,16.41
2019-05-30T07:20:43.222Z,16.40
2019-05-30T07:23:14.363Z,16.50
2019-05-30T07:25:45.399Z,16.61
2019-05-30T07:28:16.405Z,16.74
2019-05-30T07:30:47.475Z,16.84
2019-05-30T07:33:18.526Z,16.89
2019-05-30T07:35:49.549Z,16.96
2019-05-30T07:38:20.552Z,17.12
2019-05-30T07:40:51.541Z,17.16
2019-05-30T07:43:26.257Z,17.28
2019-05-30T07:45:58.527Z,17.33
2019-05-30T07:48:30.187Z,17.50
2019-05-30T07:51:01.150Z,17.55
2019-05-30T07:53:32.821Z,17.65
2019-05-30T07:56:04.020Z,17.78
2019-05-30T07:58:35.311Z,17.80
2019-05-30T08:01:07.457Z,17.87
2019-05-30T08:03:38.859Z,17.97
2019-05-30T08:06:10.025Z,18.04
2019-05-30T08:08:41.045Z,18.09
2019-05-30T08:11:12.031Z,18.12
2019-05-30T08:13:43.092Z,18.26
2019-05-30T08:16:14.096Z,18.26
2019-05-30T08:18:45.928Z,18.42
2019-05-30T08:21:17.171Z,18.46
2019-05-30T08:23:48.275Z,18.49
2019-05-30T08:26:20.391Z,18.58
2019-05-30T08:28:51.500Z,18.80
2019-05-30T08:31:23.837Z,18.86
2019-05-30T08:33:54.997Z,18.85
2019-05-30T08:36:26.039Z,18.89
2019-05-30T08:38:57.237Z,18.99
2019-05-30T08:41:29.119Z,19.10
2019-05-30T08:44:00.798Z,19.15
2019-05-30T08:46:32.254Z,19.21
2019-05-30T08:49:03.503Z,19.31
2019-05-30T08:51:34.562Z,19.33
2019-05-30T08:54:05.873Z,19.50
2019-05-30T08:56:37.007Z,19.45
2019-05-30T08:59:08.265Z,19.49
2019-05-30T09:01:40.477Z,19.52
2019-05-30T09:04:12.375Z,19.61
2019-05-30T09:06:44.184Z,19.68
2019-05-30T09:09:15.315Z,19.70
2019-05-30T09:11:46.579Z,19.79
2019-05-30T09:14:17.622Z,19.81
2019-05-30T09:16:49.577Z,19.81
2019-05-30T09:19:21.200Z,19.85
2019-05-30T09:21:52.419Z,19.90
2019-05-30T09:24:24.148Z,19.90
2019-05-30T09:26:56.164Z,19.96
2019-05-30T09:29:27.309Z,20.12
2019-05-30T09:31:58.295Z,20.18
2019-05-30T09:34:29.387Z,20.16
2019-05-30T09:37:00.439Z,20.18
2019-05-30T09:39:31.625Z,20.22
2019-05-30T09:42:02.621Z,20.33
2019-05-30T09:44:33.668Z,20.46
2019-05-30T09:47:05.014Z,20.55
2019-05-30T09:49:36.180Z,20.64
2019-05-30T09:52:07.392Z,20.82
2019-05-30T09:54:38.554Z,20.84
2019-05-30T09:57:09.557Z,20.85
2019-05-30T09:59:41.570Z,20.84
2019-05-30T10:02:13.328Z,20.81
2019-05-30T10:04:45.753Z,20.84
2019-05-30T10:07:17.219Z,20.85
2019-05-30T10:09:48.903Z,20.89
2019-05-30T10:12:19.910Z,20.95
2019-05-30T10:14:51.129Z,20.93
2019-05-30T10:17:22.298Z,20.97
2019-05-30T10:19:54.166Z,21.04
2019-05-30T10:22:25.308Z,21.14
2019-05-30T10:24:57.214Z,21.18
2019-05-30T10:27:28.255Z,21.24
2019-05-30T10:29:59.338Z,21.28
2019-05-30T10:32:30.421Z,21.18
2019-05-30T10:35:01.425Z,21.18
2019-05-30T10:37:32.483Z,21.12
2019-05-30T10:40:03.639Z,21.14
2019-05-30T10:42:34.708Z,21.06
2019-05-30T10:45:06.958Z,20.93
2019-05-30T10:47:38.788Z,20.84
2019-05-30T10:50:10.589Z,20.85
2019-05-30T10:52:42.018Z,20.83
2019-05-30T10:55:14.658Z,20.83
2019-05-30T10:57:47.042Z,20.86
2019-05-30T11:00:19.321Z,20.94
2019-05-30T11:02:51.195Z,21.02
2019-05-30T11:05:22.452Z,21.09
2019-05-30T11:08:06.019Z,20.96
2019-05-30T11:10:39.167Z,20.91
2019-05-30T11:13:13.523Z,20.76
2019-05-30T11:15:44.958Z,20.73
2019-05-30T11:18:16.139Z,20.86
2019-05-30T11:20:49.889Z,20.89
2019-05-30T11:23:21.071Z,20.92
2019-05-30T11:25:52.590Z,20.89
2019-05-30T11:28:24.404Z,20.88
2019-05-30T11:30:55.411Z,20.74
2019-05-30T11:33:26.517Z,20.71
2019-05-30T11:35:57.665Z,20.63
2019-05-30T11:38:28.781Z,20.57
2019-05-30T11:40:59.910Z,20.56
2019-05-30T11:43:31.027Z,20.52
2019-05-30T11:46:02.121Z,20.55
2019-05-30T11:48:33.109Z,20.64
2019-05-30T11:51:04.185Z,20.68
2019-05-30T11:53:35.245Z,20.78
2019-05-30T11:56:06.615Z,20.88
2019-05-30T11:58:37.631Z,20.97
2019-05-30T12:01:08.797Z,20.99
2019-05-30T12:03:39.822Z,21.06
2019-05-30T12:06:10.887Z,21.15
2019-05-30T12:08:42.085Z,21.15
2019-05-30T12:11:13.276Z,21.12
2019-05-30T12:13:44.288Z,21.12
2019-05-30T12:16:15.392Z,21.07
2019-05-30T12:18:46.370Z,20.96
2019-05-30T12:21:17.436Z,20.91
2019-05-30T12:23:49.191Z,20.85
2019-05-30T12:26:20.373Z,20.88
2019-05-30T12:28:52.065Z,20.88
2019-05-30T12:31:24.460Z,20.88
2019-05-30T12:33:56.237Z,20.88
2019-05-30T12:36:27.628Z,20.93
2019-05-30T12:38:58.644Z,20.96
2019-05-30T12:41:29.746Z,21.01
2019-05-30T12:44:01.336Z,21.04
2019-05-30T12:46:32.482Z,21.10
2019-05-30T12:49:03.768Z,21.11
2019-05-30T12:51:34.831Z,21.13
2019-05-30T12:54:06.818Z,21.10
2019-05-30T12:56:37.854Z,21.11
2019-05-30T12:59:09.000Z,21.13
2019-05-30T13:01:40.008Z,21.29
2019-05-30T13:04:11.055Z,21.38
2019-05-30T13:06:42.070Z,21.38
2019-05-30T13:09:13.074Z,21.41
2019-05-30T13:11:44.660Z,21.43
2019-05-30T13:14:15.656Z,21.39
2019-05-30T13:16:46.652Z,21.28
2019-05-30T13:19:17.653Z,21.19
2019-05-30T13:21:49.886Z,21.18
2019-05-30T13:24:20.932Z,21.27
2019-05-30T13:26:51.992Z,21.24
2019-05-30T13:29:23.017Z,21.17
2019-05-30T13:31:54.689Z,21.14
2019-05-30T13:34:25.681Z,21.14
2019-05-30T13:36:58.852Z,21.14
2019-05-30T13:39:29.921Z,21.08
2019-05-30T13:42:01.634Z,21.05
2019-05-30T13:44:32.835Z,21.04
2019-05-30T13:47:04.594Z,21.04
2019-05-30T13:49:35.778Z,21.04
2019-05-30T13:52:07.366Z,21.02
2019-05-30T13:54:38.364Z,20.98
2019-05-30T13:57:09.777Z,20.94
2019-05-30T13:59:40.930Z,20.92
2019-05-30T14:02:11.979Z,20.87
2019-05-30T14:04:43.144Z,20.87
2019-05-30T14:07:14.140Z,20.90
2019-05-30T14:09:45.143Z,20.94
2019-05-30T14:12:17.228Z,20.94
2019-05-30T14:14:48.212Z,20.94
2019-05-30T14:17:19.292Z,20.92
2019-05-30T14:19:50.501Z,20.88
2019-05-30T14:22:21.518Z,20.84
2019-05-30T14:24:52.707Z,20.83
2019-05-30T14:27:24.843Z,20.84
2019-05-30T14:29:56.193Z,20.79
2019-05-30T14:32:27.240Z,20.79
2019-05-30T14:34:58.281Z,20.78
2019-05-30T14:37:29.301Z,20.79
2019-05-30T14:40:00.382Z,20.76
2019-05-30T14:42:31.411Z,20.72
2019-05-30T14:45:02.635Z,20.77
2019-05-30T14:47:33.798Z,20.78
2019-05-30T14:50:08.834Z,20.78
2019-05-30T14:52:39.659Z,20.81
2019-05-30T14:55:13.110Z,20.80
2019-05-30T14:57:44.444Z,20.75
2019-05-30T15:00:18.486Z,20.77
2019-05-30T15:02:49.793Z,20.81
2019-05-30T15:05:21.015Z,20.83
2019-05-30T15:07:52.072Z,20.80
2019-05-30T15:10:23.440Z,20.83
2019-05-30T15:12:55.005Z,20.84
2019-05-30T15:15:26.191Z,20.87
2019-05-30T15:17:57.385Z,20.93
2019-05-30T15:20:28.473Z,20.87
2019-05-30T15:22:59.553Z,20.91
2019-05-30T15:25:30.679Z,20.87
2019-05-30T15:28:01.759Z,20.89
2019-05-30T15:30:33.030Z,20.95
2019-05-30T15:33:04.206Z,20.94
2019-05-30T15:35:35.664Z,20.97
2019-05-30T15:38:06.789Z,20.98
2019-05-30T15:40:38.920Z,20.96
2019-05-30T15:43:11.305Z,20.92
2019-05-30T15:45:42.527Z,20.94
2019-05-30T15:48:14.254Z,20.98
2019-05-30T15:50:45.379Z,21.02
2019-05-30T15:53:17.254Z,21.02
2019-05-30T15:55:48.347Z,21.08
2019-05-30T15:58:20.486Z,21.10
2019-05-30T16:00:51.836Z,21.19
2019-05-30T16:03:23.350Z,21.19
2019-05-30T16:05:54.550Z,21.27
2019-05-30T16:08:29.671Z,21.21
2019-05-30T16:11:01.049Z,21.23
2019-05-30T16:13:33.266Z,21.23
2019-05-30T16:16:04.367Z,21.26
2019-05-30T16:18:36.185Z,21.28
2019-05-30T16:21:07.326Z,21.29
2019-05-30T16:23:39.379Z,21.27
2019-05-30T16:26:10.782Z,21.29
2019-05-30T16:28:42.574Z,21.23
2019-05-30T16:31:13.812Z,21.21
2019-05-30T16:33:45.471Z,21.13
2019-05-30T16:36:16.459Z,21.15
2019-05-30T16:38:48.273Z,21.10
2019-05-30T16:41:20.435Z,21.10
2019-05-30T16:43:52.344Z,21.09
2019-05-30T16:46:23.370Z,21.05
2019-05-30T16:48:56.109Z,21.08
2019-05-30T16:51:27.222Z,21.08
2019-05-30T16:54:11.411Z,21.04
2019-05-30T16:56:42.540Z,21.01
2019-05-30T16:59:14.638Z,21.01
2019-05-30T17:01:45.710Z,20.97
2019-05-30T17:04:18.825Z,20.98
2019-05-30T17:06:50.024Z,20.94
2019-05-30T17:09:23.501Z,20.90
2019-05-30T17:11:56.151Z,20.86
2019-05-30T17:14:27.938Z,20.87
2019-05-30T17:17:02.525Z,20.83
2019-05-30T17:19:32.781Z,20.85
2019-05-30T17:22:04.416Z,20.82
2019-05-30T17:31:10.962Z,20.77
2019-05-30T17:33:42.109Z,20.65
2019-05-30T17:36:13.278Z,20.69
2019-05-30T17:38:44.748Z,20.68
2019-05-30T17:41:16.391Z,20.72
2019-05-30T17:43:48.464Z,20.68
2019-05-30T17:46:19.753Z,20.59
2019-05-30T17:48:50.861Z,20.64
2019-05-30T17:51:22.070Z,20.63
2019-05-30T17:53:53.139Z,20.55
2019-05-30T17:56:24.333Z,20.52
2019-05-30T17:58:55.555Z,20.48
2019-05-30T18:01:26.612Z,20.44
2019-05-30T18:03:57.767Z,20.41
2019-05-30T18:06:28.792Z,20.38
2019-05-30T18:08:59.866Z,20.36
2019-05-30T18:11:31.147Z,20.35
2019-05-30T18:14:02.229Z,20.34
2019-05-30T18:16:33.389Z,20.30
2019-05-30T18:19:04.728Z,20.28
2019-05-30T18:21:35.744Z,20.26
2019-05-30T18:24:07.221Z,20.24
2019-05-30T18:26:39.205Z,20.20
2019-05-30T18:29:11.301Z,20.19
2019-05-30T18:31:42.320Z,20.15
2019-05-30T18:34:13.853Z,20.13
2019-05-30T18:36:45.208Z,20.14
2019-05-30T18:39:17.050Z,20.13
2019-05-30T18:41:48.054Z,20.12
2019-05-30T18:44:19.455Z,20.08
2019-05-30T18:46:51.541Z,20.06
2019-05-30T18:49:23.078Z,20.03
2019-05-30T18:51:54.116Z,20.01
2019-05-30T18:54:26.458Z,19.95
2019-05-30T18:56:58.675Z,19.96
2019-05-30T18:59:31.080Z,19.96
2019-05-30T19:02:02.469Z,19.94
2019-05-30T19:04:33.723Z,19.90
2019-05-30T19:07:04.852Z,19.86
2019-05-30T19:09:37.105Z,19.84
2019-05-30T19:12:08.664Z,19.82
2019-05-30T19:14:40.131Z,19.80
2019-05-30T19:17:11.266Z,19.76
2019-05-30T19:19:42.645Z,19.75
2019-05-30T19:22:13.714Z,19.74
2019-05-30T19:24:44.859Z,19.72
2019-05-30T19:27:16.810Z,19.71
2019-05-30T19:29:47.911Z,19.65
2019-05-30T19:32:18.926Z,19.63
2019-05-30T19:34:49.999Z,19.61
2019-05-30T19:37:21.378Z,19.60
2019-05-30T19:39:52.464Z,19.57
2019-05-30T19:42:23.484Z,19.56
2019-05-30T19:44:54.654Z,19.54
2019-05-30T19:47:25.665Z,19.52
2019-05-30T19:49:57.131Z,19.48
2019-05-30T19:52:28.584Z,19.48
2019-05-30T19:54:59.682Z,19.43
2019-05-30T19:57:31.553Z,19.42
2019-05-30T20:00:02.888Z,19.46
2019-05-30T20:02:36.100Z,19.41
2019-05-30T20:05:08.283Z,19.35
2019-05-30T20:07:39.307Z,19.35
2019-05-30T20:10:10.779Z,19.34
2019-05-30T20:12:41.868Z,19.34
2019-05-30T20:15:13.874Z,19.31
2019-05-30T20:17:45.083Z,19.28
2019-05-30T20:20:18.866Z,19.27
2019-05-30T20:22:50.020Z,19.27
2019-05-30T20:25:21.362Z,19.22
2019-05-30T20:27:52.707Z,19.18
2019-05-30T20:30:24.351Z,19.16
2019-05-30T20:32:55.358Z,19.14
2019-05-30T20:35:26.555Z,19.11
2019-05-30T20:37:57.560Z,19.13
2019-05-30T20:40:28.638Z,19.10
2019-05-30T20:42:59.641Z,19.10
2019-05-30T20:45:30.889Z,19.08
2019-05-30T20:48:02.093Z,19.05
2019-05-30T20:50:33.174Z,19.02
2019-05-30T20:53:04.269Z,18.98
2019-05-30T20:55:36.361Z,18.95
2019-05-30T20:58:07.538Z,18.94
2019-05-30T21:00:40.374Z,18.94
2019-05-30T21:03:11.797Z,18.93
2019-05-30T21:05:44.109Z,18.94
2019-05-30T21:08:16.283Z,18.91
2019-05-30T21:10:49.341Z,18.92
2019-05-30T21:13:20.627Z,18.90
2019-05-30T21:15:53.349Z,18.92
2019-05-30T21:18:26.462Z,18.88
2019-05-30T21:20:57.536Z,18.88
2019-05-30T21:23:28.637Z,18.86
2019-05-30T21:25:59.805Z,18.81
2019-05-30T21:28:30.929Z,18.81
2019-05-30T21:31:02.032Z,18.81
2019-05-30T21:33:33.016Z,18.76
2019-05-30T21:36:04.222Z,18.78
2019-05-30T21:38:35.191Z,18.77
2019-05-30T21:41:06.337Z,18.75
2019-05-30T21:43:38.328Z,18.73
2019-05-30T21:46:09.610Z,18.71
2019-05-30T21:48:40.867Z,18.72
2019-05-30T21:51:11.900Z,18.73
2019-05-30T21:53:43.515Z,18.64
2019-05-30T21:56:14.792Z,18.63
2019-05-30T21:58:48.218Z,18.59
2019-05-30T22:01:35.926Z,18.51
2019-05-30T22:04:08.125Z,18.51
2019-05-30T22:06:39.268Z,18.47
2019-05-30T22:09:11.655Z,18.50
2019-05-30T22:11:43.629Z,18.47
2019-05-30T22:14:14.950Z,18.49
2019-05-30T22:16:47.912Z,18.43
2019-05-30T22:19:19.228Z,18.42
2019-05-30T22:21:50.611Z,18.36
2019-05-30T22:24:22.013Z,18.36
2019-05-30T22:26:53.363Z,18.36
2019-05-30T22:29:24.466Z,18.41
2019-05-30T22:31:55.885Z,18.39
2019-05-30T22:34:27.164Z,18.41
2019-05-30T22:36:58.245Z,18.35
2019-05-30T22:39:29.556Z,18.40
2019-05-30T22:42:00.630Z,18.37
2019-05-30T22:44:31.662Z,18.36
2019-05-30T22:47:02.762Z,18.36
2019-05-30T22:49:33.827Z,18.35
2019-05-30T22:52:05.177Z,18.30
2019-05-30T22:54:36.201Z,18.35
2019-05-30T22:57:07.379Z,18.36
2019-05-30T22:59:38.411Z,18.33
2019-05-30T23:02:10.119Z,18.35
2019-05-30T23:04:41.455Z,18.36
2019-05-30T23:07:12.624Z,18.35
2019-05-30T23:09:45.451Z,18.26
2019-05-30T23:12:17.527Z,18.33
2019-05-30T23:14:48.597Z,18.34
2019-05-30T23:17:19.644Z,18.32
2019-05-30T23:19:51.627Z,18.31
2019-05-30T23:22:23.086Z,18.31
2019-05-30T23:24:55.211Z,18.30
2019-05-30T23:27:26.559Z,18.27
2019-05-30T23:29:57.971Z,18.27
2019-05-30T23:32:29.578Z,18.27
2019-05-30T23:35:00.590Z,18.24
2019-05-30T23:37:31.884Z,18.25
2019-05-30T23:40:03.006Z,18.22
2019-05-30T23:42:34.155Z,18.26
2019-05-30T23:45:06.727Z,18.22
2019-05-30T23:47:37.984Z,18.23
2019-05-30T23:50:10.690Z,18.22
2019-05-30T23:52:41.775Z,18.22
2019-05-30T23:55:13.067Z,18.20
2019-05-30T23:57:44.428Z,18.19
